Time;durP1;ratioP1;P1;durP2;ratioP2;P2;SDS_P1;SDS_P2;PMS_P1;PMS_P2;Temp;Humidity;BMP_temperature;BMP_pressure;BME280_temperature;BME280_humidity;BME280_pressure;Samples;Min_cycle;Max_cycle;Signal;HPM_P1;HPM_P2
2022/10/08 00:01:16;;;;;;;7.65;3.53;;;13.90;99.90;;;;;;5072642;28;20077;-82
2022/10/08 00:03:44;;;;;;;8.18;3.85;;;13.90;99.90;;;;;;5075782;28;20048;-82
2022/10/08 00:06:16;;;;;;;6.95;3.75;;;13.90;99.90;;;;;;5077500;28;20033;-83
2022/10/08 00:08:46;;;;;;;8.02;4.15;;;13.90;99.90;;;;;;5075908;28;20096;-82
2022/10/08 00:11:15;;;;;;;7.50;3.90;;;13.90;99.90;;;;;;5076605;28;20519;-83
2022/10/08 00:13:43;;;;;;;8.48;3.80;;;13.90;99.90;;;;;;5076983;28;20025;-83
2022/10/08 00:16:11;;;;;;;8.50;4.30;;;13.90;99.90;;;;;;5077500;28;20095;-83
2022/10/08 00:18:39;;;;;;;8.05;4.03;;;13.90;99.90;;;;;;5064242;28;20020;-82
2022/10/08 00:21:13;;;;;;;6.78;3.38;;;13.90;99.90;;;;;;5075737;28;20055;-83
2022/10/08 00:23:40;;;;;;;8.00;3.58;;;13.90;99.90;;;;;;5092436;28;20052;-82
2022/10/08 00:26:06;;;;;;;8.23;3.58;;;13.80;99.90;;;;;;5070280;28;20025;-83
2022/10/08 00:28:33;;;;;;;9.52;4.15;;;13.90;99.90;;;;;;5068292;28;20028;-83
2022/10/08 00:31:06;;;;;;;6.97;3.92;;;13.90;99.90;;;;;;5076896;28;20079;-82
2022/10/08 00:33:34;;;;;;;7.65;3.08;;;13.90;99.90;;;;;;5075488;28;20017;-83
2022/10/08 00:36:02;;;;;;;7.35;3.33;;;13.80;99.90;;;;;;5073828;28;20073;-83
2022/10/08 00:38:28;;;;;;;8.63;3.85;;;13.80;99.90;;;;;;5074902;28;20101;-82
2022/10/08 00:40:54;;;;;;;7.32;3.20;;;13.80;99.90;;;;;;5074691;28;20023;-82
2022/10/08 00:43:37;;;;;;;6.88;3.13;;;13.70;99.90;;;;;;5075258;28;20088;-82
2022/10/08 00:46:04;;;;;;;6.93;2.83;;;13.80;99.90;;;;;;5088220;28;20048;-82
2022/10/08 00:48:30;;;;;;;7.07;3.42;;;13.80;99.90;;;;;;5074101;28;20024;-82
2022/10/08 00:50:55;;;;;;;6.18;3.17;;;13.70;99.90;;;;;;5076118;28;20357;-83
2022/10/08 00:53:21;;;;;;;6.30;3.80;;;13.70;99.90;;;;;;5074253;28;20078;-82
2022/10/08 00:55:47;;;;;;;5.32;2.70;;;13.70;99.90;;;;;;5074812;28;20377;-82
2022/10/08 00:58:18;;;;;;;5.72;2.95;;;13.70;99.90;;;;;;5063137;28;20021;-83
2022/10/08 01:00:43;;;;;;;4.88;2.80;;;13.60;99.90;;;;;;5071551;28;20032;-83
2022/10/08 01:03:09;;;;;;;7.88;3.25;;;13.70;99.90;;;;;;5074787;28;20397;-82
2022/10/08 01:05:41;;;;;;;5.35;3.08;;;13.60;99.90;;;;;;5075304;28;20054;-83
2022/10/08 01:08:26;;;;;;;5.45;3.08;;;13.50;99.90;;;;;;5072443;28;20024;-82
2022/10/08 01:11:19;;;;;;;6.15;2.80;;;13.50;99.90;;;;;;5071593;28;20040;-83
2022/10/08 01:14:15;;;;;;;6.53;2.92;;;13.40;99.90;;;;;;5069154;28;20150;-83
2022/10/08 01:16:54;;;;;;;4.95;2.25;;;13.40;99.90;;;;;;5067290;28;20099;-82
2022/10/08 01:19:46;;;;;;;5.72;2.90;;;13.40;99.90;;;;;;5063787;28;20025;-83
2022/10/08 01:22:37;;;;;;;6.60;2.90;;;13.40;99.90;;;;;;5074055;28;20111;-83
2022/10/08 01:25:32;;;;;;;6.30;2.97;;;13.40;99.90;;;;;;5066266;28;20106;-83
2022/10/08 01:28:03;;;;;;;6.25;2.85;;;13.40;99.90;;;;;;5057229;28;20048;-83
2022/10/08 01:30:32;;;;;;;6.43;2.83;;;13.40;99.90;;;;;;5089165;28;20105;-83
2022/10/08 01:33:27;;;;;;;5.80;2.42;;;13.40;99.90;;;;;;5071936;28;20583;-82
2022/10/08 01:35:57;;;;;;;6.03;2.85;;;13.40;99.90;;;;;;5059315;28;20043;-83
2022/10/08 01:38:26;;;;;;;7.55;3.40;;;13.40;99.90;;;;;;5073489;28;20060;-83
2022/10/08 01:40:57;;;;;;;6.68;3.17;;;13.40;99.90;;;;;;5071528;28;20017;-82
2022/10/08 01:43:27;;;;;;;8.45;3.38;;;13.40;99.90;;;;;;5072487;28;20056;-82
2022/10/08 01:45:57;;;;;;;9.48;3.00;;;13.40;99.90;;;;;;5068254;28;20156;-82
2022/10/08 01:48:27;;;;;;;7.28;3.55;;;13.40;99.90;;;;;;5070563;28;20031;-83
2022/10/08 01:51:06;;;;;;;6.43;3.47;;;13.40;99.90;;;;;;5074090;28;20025;-83
2022/10/08 01:53:39;;;;;;;9.68;4.10;;;13.40;99.90;;;;;;5066065;28;20145;-83
2022/10/08 01:56:09;;;;;;;7.53;3.38;;;13.30;99.90;;;;;;5069900;28;20489;-83
2022/10/08 01:58:56;;;;;;;6.80;2.75;;;13.40;99.90;;;;;;5066322;28;20512;-83
2022/10/08 02:01:36;;;;;;;8.10;3.63;;;13.40;99.90;;;;;;5074208;28;20024;-83
2022/10/08 02:06:54;;;;;;;5.38;3.47;;;13.40;99.90;;;;;;5068112;28;20404;-82
2022/10/08 02:09:20;;;;;;;6.10;3.25;;;13.40;99.90;;;;;;5072263;28;20031;-82
2022/10/08 02:11:46;;;;;;;6.53;3.45;;;13.40;99.90;;;;;;5073957;28;20638;-83
2022/10/08 02:14:12;;;;;;;5.53;3.10;;;13.50;99.90;;;;;;5065586;28;20016;-82
2022/10/08 02:16:46;;;;;;;6.30;3.08;;;13.50;99.90;;;;;;5074266;28;20029;-83
2022/10/08 02:19:32;;;;;;;7.72;3.28;;;13.50;99.90;;;;;;5071391;28;20042;-83
2022/10/08 02:22:00;;;;;;;8.52;2.95;;;13.50;99.90;;;;;;5072224;28;20075;-82
2022/10/08 02:24:48;;;;;;;6.85;3.00;;;13.50;99.90;;;;;;5071950;28;20036;-82
2022/10/08 02:27:16;;;;;;;7.00;3.20;;;13.60;99.90;;;;;;5073534;28;20012;-83
2022/10/08 02:29:54;;;;;;;5.63;2.67;;;13.50;99.90;;;;;;5073293;28;20497;-83
2022/10/08 02:32:26;;;;;;;6.47;3.28;;;13.50;99.90;;;;;;5069222;28;20409;-83
2022/10/08 02:35:00;;;;;;;4.80;2.95;;;13.60;99.90;;;;;;5073732;28;20021;-82
2022/10/08 02:37:43;;;;;;;6.20;3.00;;;13.50;99.90;;;;;;5073847;28;20072;-83
2022/10/08 02:40:12;;;;;;;5.43;2.95;;;13.50;99.90;;;;;;5066772;28;20029;-82
2022/10/08 02:42:43;;;;;;;6.22;3.20;;;13.50;99.90;;;;;;5073589;28;20385;-82
2022/10/08 02:45:15;;;;;;;5.28;2.63;;;13.50;99.90;;;;;;5071523;28;20021;-82
2022/10/08 02:47:43;;;;;;;6.18;2.72;;;13.40;99.90;;;;;;5053348;28;20013;-82
2022/10/08 02:50:16;;;;;;;6.30;2.95;;;13.50;99.90;;;;;;5073803;28;20101;-83
2022/10/08 02:52:44;;;;;;;8.52;3.22;;;13.40;99.90;;;;;;5088552;28;20029;-82
2022/10/08 02:55:26;;;;;;;5.22;2.75;;;13.40;99.90;;;;;;5071053;28;20027;-82
2022/10/08 02:58:05;;;;;;;5.68;2.80;;;13.40;99.90;;;;;;5073636;28;20459;-82
2022/10/08 03:00:37;;;;;;;4.78;2.85;;;13.40;99.90;;;;;;5074757;28;20071;-83
2022/10/08 03:03:21;;;;;;;6.20;2.95;;;13.40;99.90;;;;;;5077417;28;20021;-82
2022/10/08 03:05:49;;;;;;;5.55;2.72;;;13.40;99.90;;;;;;5074686;28;20025;-82
2022/10/08 03:08:16;;;;;;;5.22;3.10;;;13.30;99.90;;;;;;5075363;28;20056;-83
2022/10/08 03:10:42;;;;;;;4.82;2.63;;;13.30;99.90;;;;;;5075945;28;20575;-82
2022/10/08 03:13:10;;;;;;;4.93;2.80;;;13.30;99.90;;;;;;5076412;28;20096;-83
2022/10/08 03:15:39;;;;;;;6.90;2.90;;;13.30;99.90;;;;;;5076512;28;20089;-82
2022/10/08 03:18:07;;;;;;;6.65;2.28;;;13.30;99.90;;;;;;5076716;28;20059;-82
2022/10/08 03:20:41;;;;;;;6.43;2.50;;;13.30;99.90;;;;;;5074828;28;20032;-83
2022/10/08 03:23:06;;;;;;;4.82;2.58;;;13.30;99.90;;;;;;5076891;28;20082;-82
2022/10/08 03:25:32;;;;;;;5.97;2.95;;;13.40;99.90;;;;;;5076284;28;20304;-82
2022/10/08 03:27:57;;;;;;;4.90;2.63;;;13.40;99.90;;;;;;5070134;28;20016;-83
2022/10/08 03:30:23;;;;;;;8.57;2.92;;;13.30;99.90;;;;;;5075371;28;20019;-83
2022/10/08 03:32:48;;;;;;;6.47;2.80;;;13.30;99.90;;;;;;5076458;28;20102;-83
2022/10/08 03:35:14;;;;;;;5.65;2.08;;;13.30;99.90;;;;;;5075377;28;20024;-82
2022/10/08 03:37:40;;;;;;;5.60;2.25;;;13.20;99.90;;;;;;5074353;28;20036;-83
2022/10/08 03:40:06;;;;;;;7.82;3.10;;;13.30;99.90;;;;;;5076508;28;20017;-82
2022/10/08 03:42:33;;;;;;;6.75;2.97;;;13.30;99.90;;;;;;5072660;28;20021;-82
2022/10/08 03:45:00;;;;;;;8.55;2.85;;;13.30;99.90;;;;;;5075174;28;20032;-82
2022/10/08 03:47:26;;;;;;;5.57;2.35;;;13.40;99.90;;;;;;5069577;28;20033;-82
2022/10/08 03:49:51;;;;;;;5.95;2.63;;;13.40;99.90;;;;;;5075221;28;20025;-82
2022/10/08 03:52:17;;;;;;;7.55;2.22;;;13.50;99.90;;;;;;5077643;28;20017;-82
2022/10/08 03:54:42;;;;;;;6.25;2.55;;;13.50;99.90;;;;;;5074138;28;20025;-82
2022/10/08 03:57:08;;;;;;;6.57;2.60;;;13.60;99.90;;;;;;5074974;28;20027;-81
2022/10/08 03:59:33;;;;;;;5.50;2.67;;;13.60;99.90;;;;;;5077021;28;20029;-82
2022/10/08 04:01:59;;;;;;;4.93;2.65;;;13.60;99.90;;;;;;5076553;28;20024;-82
2022/10/08 04:04:25;;;;;;;5.05;2.70;;;13.60;99.90;;;;;;5071231;28;20028;-82
2022/10/08 04:06:50;;;;;;;5.63;2.30;;;13.70;99.90;;;;;;5066181;28;20102;-82
2022/10/08 04:09:16;;;;;;;6.25;2.63;;;13.70;99.90;;;;;;5062259;28;20634;-82
2022/10/08 04:11:41;;;;;;;6.15;2.90;;;13.70;99.90;;;;;;5072496;28;20028;-82
2022/10/08 04:14:10;;;;;;;4.60;2.40;;;13.70;99.90;;;;;;5127642;22;20492;-86
2022/10/08 04:16:35;;;;;;;6.80;2.75;;;13.60;99.90;;;;;;5111599;28;20024;-87
2022/10/08 04:19:01;;;;;;;7.22;2.10;;;13.80;99.90;;;;;;5122025;28;20028;-88
2022/10/08 04:21:29;;;;;;;4.22;2.10;;;13.70;99.90;;;;;;5123639;27;20072;-86
2022/10/08 04:23:56;;;;;;;5.50;2.25;;;14.40;99.90;;;;;;5113694;28;20031;-86
2022/10/08 04:26:21;;;;;;;4.97;2.20;;;13.70;99.90;;;;;;5126965;28;20049;-87
2022/10/08 04:28:47;;;;;;;5.13;2.53;;;14.10;99.90;;;;;;5122252;27;20032;-86
2022/10/08 04:31:18;;;;;;;4.88;2.22;;;13.70;99.90;;;;;;5114958;28;20027;-86
2022/10/08 04:33:45;;;;;;;5.95;2.38;;;13.70;99.90;;;;;;5112528;28;20027;-87
2022/10/08 04:36:13;;;;;;;6.55;2.78;;;13.70;99.90;;;;;;5117414;28;20024;-86
2022/10/08 04:38:41;;;;;;;5.78;2.75;;;13.70;99.90;;;;;;5118421;27;20030;-86
2022/10/08 04:41:16;;;;;;;4.05;2.25;;;13.70;99.90;;;;;;5117125;28;20016;-87
2022/10/08 04:43:43;;;;;;;5.18;2.20;;;13.60;99.90;;;;;;5123366;28;20020;-86
2022/10/08 04:46:10;;;;;;;4.60;1.80;;;14.30;99.90;;;;;;5121811;27;20019;-86
2022/10/08 04:48:37;;;;;;;4.97;2.40;;;14.40;99.90;;;;;;5108691;28;20020;-86
2022/10/08 04:51:05;;;;;;;6.13;2.70;;;13.70;99.90;;;;;;5116681;28;20023;-86
2022/10/08 04:53:31;;;;;;;5.47;2.17;;;13.70;99.90;;;;;;5108163;28;20041;-88
2022/10/08 04:55:56;;;;;;;6.20;2.20;;;13.40;99.90;;;;;;5118888;28;20024;-88
2022/10/08 04:58:24;;;;;;;5.68;2.30;;;13.70;99.90;;;;;;5122192;28;20020;-87
2022/10/08 05:00:50;;;;;;;4.80;2.05;;;13.70;99.90;;;;;;5124774;28;20016;-86
2022/10/08 05:03:16;;;;;;;4.60;2.25;;;13.60;99.90;;;;;;5119294;28;20116;-87
2022/10/08 05:05:45;;;;;;;6.68;2.60;;;13.70;99.90;;;;;;5117609;27;20765;-87
2022/10/08 05:08:14;;;;;;;4.70;2.40;;;13.60;99.90;;;;;;5118771;28;20037;-87
2022/10/08 05:10:47;;;;;;;5.07;2.10;;;13.70;99.90;;;;;;5114858;28;20035;-87
2022/10/08 05:13:13;;;;;;;4.22;2.10;;;13.60;99.90;;;;;;5117973;28;20034;-88
2022/10/08 05:15:39;;;;;;;5.25;3.20;;;13.60;99.90;;;;;;5114195;27;20028;-88
2022/10/08 05:18:04;;;;;;;4.90;2.60;;;13.60;99.90;;;;;;5124445;28;20022;-88
2022/10/08 05:20:33;;;;;;;5.88;2.53;;;13.60;99.90;;;;;;5120639;28;20020;-88
2022/10/08 05:22:58;;;;;;;5.60;2.60;;;14.00;99.90;;;;;;5111569;28;20020;-89
2022/10/08 05:25:25;;;;;;;5.22;2.40;;;13.60;99.90;;;;;;5119049;27;20039;-87
2022/10/08 05:27:51;;;;;;;5.60;2.47;;;13.60;99.90;;;;;;5108632;27;20020;-87
2022/10/08 05:30:16;;;;;;;4.32;1.98;;;13.50;99.90;;;;;;5119026;28;20008;-87
2022/10/08 05:32:42;;;;;;;7.82;2.20;;;13.50;99.90;;;;;;5109190;28;20027;-86
2022/10/08 05:35:08;;;;;;;4.07;1.85;;;14.00;99.90;;;;;;5123117;27;20035;-88
2022/10/08 05:37:33;;;;;;;5.15;2.10;;;13.40;99.90;;;;;;5118319;27;20028;-90
2022/10/08 05:39:59;;;;;;;6.10;2.30;;;13.80;99.90;;;;;;5123542;28;20019;-87
2022/10/08 05:42:25;;;;;;;6.10;2.40;;;13.40;99.90;;;;;;5115956;28;20157;-88
2022/10/08 05:44:50;;;;;;;3.97;1.75;;;13.60;99.90;;;;;;5116554;28;20023;-87
2022/10/08 05:47:16;;;;;;;6.30;2.00;;;13.50;99.90;;;;;;5112240;28;20060;-88
2022/10/08 05:49:42;;;;;;;4.22;2.08;;;13.90;99.90;;;;;;5117622;28;20028;-87
2022/10/08 05:52:07;;;;;;;4.45;1.88;;;13.30;99.90;;;;;;5120258;28;20032;-87
2022/10/08 05:54:33;;;;;;;7.47;2.00;;;13.90;99.90;;;;;;5119087;28;20032;-87
2022/10/08 05:56:58;;;;;;;6.50;2.10;;;13.30;99.90;;;;;;5106822;28;20046;-87
2022/10/08 05:59:24;;;;;;;4.80;1.73;;;13.50;99.90;;;;;;5118334;28;20031;-88
2022/10/08 06:01:51;;;;;;;4.30;1.50;;;14.00;99.90;;;;;;5115398;28;20984;-87
2022/10/08 06:04:19;;;;;;;4.57;2.10;;;13.30;99.90;;;;;;5116364;28;20149;-89
2022/10/08 06:06:45;;;;;;;5.13;1.77;;;13.70;99.90;;;;;;5119545;28;20028;-87
2022/10/08 06:09:17;;;;;;;4.88;1.63;;;13.60;99.90;;;;;;5119308;28;20023;-87
2022/10/08 06:11:43;;;;;;;5.35;1.80;;;13.80;99.90;;;;;;5126882;27;20008;-88
2022/10/08 06:14:10;;;;;;;5.68;1.73;;;14.00;99.90;;;;;;5105551;28;20103;-87
2022/10/08 06:16:39;;;;;;;3.58;1.70;;;13.30;99.90;;;;;;5112900;28;20020;-87
2022/10/08 06:19:07;;;;;;;4.32;1.40;;;13.20;99.90;;;;;;5116786;28;20052;-87
2022/10/08 06:21:34;;;;;;;3.97;1.60;;;13.20;99.90;;;;;;5111253;28;20049;-88
2022/10/08 06:24:03;;;;;;;3.97;1.58;;;13.30;99.90;;;;;;5118304;28;20028;-87
2022/10/08 06:26:42;;;;;;;4.72;1.98;;;13.30;99.90;;;;;;5118600;28;20027;-88
2022/10/08 06:29:29;;;;;;;4.95;1.63;;;13.30;99.90;;;;;;5116547;28;20023;-87
2022/10/08 06:31:54;;;;;;;3.72;1.52;;;13.30;99.90;;;;;;5117972;28;20032;-88
2022/10/08 06:34:20;;;;;;;3.72;1.67;;;13.90;99.90;;;;;;5118019;28;20062;-90
2022/10/08 06:36:46;;;;;;;4.50;1.80;;;13.80;99.90;;;;;;5116891;28;20754;-88
2022/10/08 06:39:14;;;;;;;2.70;1.25;;;13.40;99.90;;;;;;5114661;28;20024;-86
2022/10/08 06:41:41;;;;;;;5.57;1.42;;;13.40;99.90;;;;;;5117552;28;20031;-86
2022/10/08 06:44:11;;;;;;;5.63;2.08;;;13.40;99.90;;;;;;5104668;28;20506;-88
2022/10/08 06:46:36;;;;;;;3.70;1.25;;;13.70;99.90;;;;;;5114831;28;20035;-88
2022/10/08 06:49:04;;;;;;;3.83;1.33;;;13.40;99.90;;;;;;5112718;28;20111;-88
2022/10/08 06:51:31;;;;;;;5.82;1.50;;;13.50;99.90;;;;;;5116411;28;20101;-88
2022/10/08 06:53:57;;;;;;;3.60;1.50;;;14.20;99.90;;;;;;5117295;28;20030;-87
2022/10/08 06:56:24;;;;;;;4.13;1.27;;;13.70;99.90;;;;;;5111484;28;20070;-87
2022/10/08 06:58:52;;;;;;;4.97;1.23;;;13.60;99.90;;;;;;5113481;28;20051;-87
2022/10/08 07:01:25;;;;;;;4.18;1.40;;;14.30;99.90;;;;;;5116969;28;20019;-88
2022/10/08 07:03:53;;;;;;;2.95;1.00;;;13.70;99.90;;;;;;5111919;28;20028;-87
2022/10/08 07:06:19;;;;;;;2.90;1.17;;;14.20;99.90;;;;;;5113434;28;20020;-87
2022/10/08 07:08:45;;;;;;;3.35;1.10;;;13.80;99.90;;;;;;5119628;28;20016;-87
2022/10/08 07:11:13;;;;;;;4.53;1.27;;;14.60;99.90;;;;;;5116584;28;20730;-87
2022/10/08 07:13:40;;;;;;;2.53;1.02;;;14.00;99.90;;;;;;5110960;28;20109;-87
2022/10/08 07:16:12;;;;;;;2.75;1.05;;;14.10;99.90;;;;;;5113608;28;20086;-87
2022/10/08 07:18:39;;;;;;;4.05;1.10;;;14.00;99.90;;;;;;5112805;28;20039;-85
2022/10/08 07:21:06;;;;;;;3.28;1.17;;;14.00;99.90;;;;;;5118510;28;20286;-86
2022/10/08 07:23:32;;;;;;;2.85;0.80;;;14.10;99.90;;;;;;5116614;28;20024;-86
2022/10/08 07:26:03;;;;;;;3.45;0.90;;;14.40;99.90;;;;;;5118127;28;20415;-85
2022/10/08 07:28:32;;;;;;;2.47;0.93;;;14.30;99.90;;;;;;5119251;28;20053;-87
2022/10/08 07:31:13;;;;;;;3.55;1.00;;;14.30;99.90;;;;;;5113800;28;20024;-86
2022/10/08 07:33:42;;;;;;;3.58;0.65;;;14.40;99.90;;;;;;5119671;28;20016;-87
2022/10/08 07:36:11;;;;;;;3.60;0.90;;;14.40;99.90;;;;;;5110378;28;20472;-86
2022/10/08 07:38:38;;;;;;;3.38;0.98;;;14.50;99.90;;;;;;5109175;28;20509;-87
2022/10/08 07:41:05;;;;;;;1.63;0.57;;;14.80;99.90;;;;;;5114399;28;20020;-87
2022/10/08 07:43:31;;;;;;;3.80;1.15;;;14.50;99.90;;;;;;5118509;28;20705;-86
2022/10/08 07:45:56;;;;;;;1.63;0.73;;;14.90;99.90;;;;;;5121737;28;20043;-85
2022/10/08 07:48:22;;;;;;;4.75;1.13;;;14.80;99.90;;;;;;5121154;28;20019;-85
2022/10/08 07:50:48;;;;;;;3.63;0.70;;;14.80;99.90;;;;;;5114226;27;20284;-86
2022/10/08 07:53:16;;;;;;;5.47;1.00;;;15.50;99.90;;;;;;5115001;27;20053;-88
2022/10/08 07:55:42;;;;;;;2.28;0.93;;;15.00;99.90;;;;;;5120251;28;20035;-86
2022/10/08 07:58:08;;;;;;;1.85;0.63;;;15.40;99.90;;;;;;5119364;28;20032;-85
2022/10/08 08:00:38;;;;;;;1.98;0.68;;;15.20;99.90;;;;;;5121304;28;20032;-86
2022/10/08 08:03:04;;;;;;;2.28;0.60;;;15.30;99.90;;;;;;5124034;28;20038;-86
2022/10/08 08:05:33;;;;;;;2.63;0.60;;;15.70;99.90;;;;;;5122647;28;21970;-86
2022/10/08 08:08:02;;;;;;;2.75;1.10;;;15.50;99.90;;;;;;5117881;28;20035;-86
2022/10/08 08:10:30;;;;;;;3.60;0.70;;;15.60;99.90;;;;;;5119511;28;20028;-85
2022/10/08 08:12:56;;;;;;;1.73;0.60;;;15.70;99.90;;;;;;5116895;28;20034;-87
2022/10/08 08:15:26;;;;;;;1.75;0.60;;;15.70;99.90;;;;;;5112021;27;20023;-86
2022/10/08 08:17:53;;;;;;;2.40;0.68;;;15.70;99.90;;;;;;5116785;28;20059;-86
2022/10/08 08:20:18;;;;;;;2.38;0.80;;;15.70;99.90;;;;;;5114768;28;20047;-86
2022/10/08 08:22:44;;;;;;;4.22;1.52;;;15.90;99.90;;;;;;5118261;28;20555;-88
2022/10/08 08:25:09;;;;;;;1.50;0.68;;;15.70;99.90;;;;;;5120612;28;20075;-86
2022/10/08 08:27:35;;;;;;;3.10;0.88;;;15.60;99.90;;;;;;5116710;28;20076;-85
2022/10/08 08:30:01;;;;;;;1.90;0.70;;;15.90;99.90;;;;;;5120004;28;20133;-86
2022/10/08 08:32:26;;;;;;;1.08;0.55;;;15.60;99.90;;;;;;5117995;27;20027;-86
2022/10/08 08:34:52;;;;;;;2.53;0.70;;;15.60;99.90;;;;;;5119860;28;20049;-86
2022/10/08 08:37:18;;;;;;;1.75;0.85;;;15.50;99.90;;;;;;5117785;28;20069;-86
2022/10/08 08:39:43;;;;;;;2.47;0.88;;;15.50;99.90;;;;;;5117576;27;20027;-86
2022/10/08 08:42:18;;;;;;;1.30;0.60;;;15.60;99.90;;;;;;5122004;28;20125;-86
2022/10/08 08:44:48;;;;;;;2.28;0.80;;;15.60;99.90;;;;;;5120010;28;20091;-86
2022/10/08 08:47:20;;;;;;;2.25;0.80;;;15.80;99.90;;;;;;5118565;28;20016;-87
2022/10/08 08:49:51;;;;;;;1.45;0.73;;;15.70;99.90;;;;;;5124128;28;20028;-85
2022/10/08 08:52:22;;;;;;;1.77;0.67;;;15.70;99.90;;;;;;5115400;28;20046;-87
2022/10/08 08:54:50;;;;;;;1.90;0.57;;;15.70;99.90;;;;;;5098662;28;20027;-86
2022/10/08 08:57:40;;;;;;;2.72;0.80;;;15.90;99.90;;;;;;5113858;28;20036;-87
2022/10/08 09:00:22;;;;;;;2.88;0.75;;;15.90;99.90;;;;;;5111771;28;20320;-87
2022/10/08 09:03:02;;;;;;;1.98;0.70;;;16.20;99.90;;;;;;5121847;28;20028;-86
2022/10/08 09:05:32;;;;;;;2.50;0.60;;;16.20;99.90;;;;;;5109759;28;20484;-87
2022/10/08 09:08:10;;;;;;;2.65;0.57;;;16.30;99.90;;;;;;5112794;28;20500;-87
2022/10/08 09:10:43;;;;;;;1.30;0.52;;;16.50;99.90;;;;;;5117602;28;20040;-87
2022/10/08 09:13:36;;;;;;;4.85;0.77;;;16.50;99.90;;;;;;5107701;28;20024;-87
2022/10/08 09:16:01;;;;;;;;;;;16.50;99.90;;;;;;5109798;28;20028;-87
2022/10/08 09:18:27;;;;;;;3.17;0.77;;;16.40;99.90;;;;;;5105194;28;20018;-87
2022/10/08 09:20:53;;;;;;;1.95;0.55;;;16.40;99.90;;;;;;5110672;28;20031;-86
2022/10/08 09:23:25;;;;;;;2.53;0.50;;;16.40;99.90;;;;;;5109300;28;20369;-87
2022/10/08 09:26:06;;;;;;;2.97;0.60;;;16.30;99.90;;;;;;5116409;28;20032;-85
2022/10/08 09:28:43;;;;;;;2.17;0.68;;;16.30;99.90;;;;;;5110029;28;20040;-86
2022/10/08 09:31:29;;;;;;;3.13;0.85;;;16.30;99.90;;;;;;5108792;27;21836;-83
2022/10/08 09:34:17;;;;;;;2.33;0.50;;;16.20;99.90;;;;;;5112406;28;21440;-84
2022/10/08 09:36:47;;;;;;;2.95;0.40;;;16.20;99.90;;;;;;5108769;28;20020;-84
2022/10/08 09:39:25;;;;;;;5.55;1.10;;;16.40;99.90;;;;;;5110370;28;20023;-85
2022/10/08 09:42:06;;;;;;;2.03;0.43;;;16.60;99.90;;;;;;5112040;28;20028;-86
2022/10/08 09:44:42;;;;;;;3.45;1.00;;;16.90;99.90;;;;;;5116550;28;20020;-85
2022/10/08 09:47:19;;;;;;;3.50;0.65;;;17.10;99.90;;;;;;5127570;27;20044;-85
2022/10/08 09:50:06;;;;;;;3.28;0.40;;;17.10;99.90;;;;;;5109665;28;20031;-87
2022/10/08 09:52:35;;;;;;;3.50;0.73;;;17.00;99.90;;;;;;5114933;28;20084;-85
2022/10/08 09:55:02;;;;;;;3.90;0.63;;;16.90;99.90;;;;;;5115083;28;20012;-86
2022/10/08 09:57:29;;;;;;;1.80;0.55;;;17.00;99.90;;;;;;5115915;28;20038;-86
2022/10/08 10:00:01;;;;;;;1.52;0.30;;;17.30;99.90;;;;;;5114172;28;20032;-87
2022/10/08 10:02:36;;;;;;;2.65;0.50;;;17.10;99.90;;;;;;5113376;28;20024;-85
2022/10/08 10:05:18;;;;;;;3.45;0.68;;;17.00;99.90;;;;;;5113575;28;20038;-83
2022/10/08 10:07:44;;;;;;;1.38;0.50;;;17.00;99.90;;;;;;5115914;28;20016;-85
2022/10/08 10:10:49;;;;;;;1.65;0.45;;;17.00;99.90;;;;;;5110048;28;20039;-83
2022/10/08 10:13:34;;;;;;;3.67;0.60;;;16.90;99.90;;;;;;5136213;22;20346;-83
2022/10/08 10:16:22;;;;;;;1.70;0.50;;;17.10;99.90;;;;;;5090524;28;20028;-82
2022/10/08 10:19:03;;;;;;;5.38;0.63;;;17.20;99.90;;;;;;5090192;28;20061;-82
2022/10/08 10:21:39;;;;;;;3.47;0.57;;;17.20;99.90;;;;;;5088204;28;20034;-83
2022/10/08 10:24:18;;;;;;;2.40;0.50;;;17.10;99.90;;;;;;5090359;28;20119;-82
2022/10/08 10:26:45;;;;;;;2.55;0.65;;;17.00;99.90;;;;;;5088309;28;20031;-82
2022/10/08 10:29:14;;;;;;;2.60;0.77;;;16.90;99.90;;;;;;5079138;28;20107;-83
2022/10/08 10:31:58;;;;;;;1.92;0.63;;;16.90;99.90;;;;;;5087370;28;20073;-83
2022/10/08 10:34:27;;;;;;;1.55;0.57;;;16.90;99.90;;;;;;5087271;28;20023;-83
2022/10/08 10:36:57;;;;;;;1.80;0.40;;;16.90;99.90;;;;;;5081380;28;20031;-84
2022/10/08 10:39:37;;;;;;;3.75;0.47;;;16.80;99.90;;;;;;5086998;28;20016;-83
2022/10/08 10:42:24;;;;;;;3.67;0.32;;;16.80;99.90;;;;;;5087526;28;20031;-84
2022/10/08 10:44:51;;;;;;;4.32;0.50;;;16.80;99.90;;;;;;5087770;28;20020;-83
2022/10/08 10:47:20;;;;;;;1.67;0.35;;;16.60;99.90;;;;;;5087480;28;20024;-84
2022/10/08 10:49:46;;;;;;;4.13;0.50;;;16.60;99.90;;;;;;5080477;28;20492;-83
2022/10/08 10:52:49;;;;;;;2.90;0.75;;;16.60;99.90;;;;;;5089327;28;20100;-84
2022/10/08 10:55:20;;;;;;;1.42;0.50;;;16.70;99.90;;;;;;5084821;28;20488;-84
2022/10/08 10:57:57;;;;;;;2.35;0.95;;;16.60;99.90;;;;;;5087072;28;20017;-84
2022/10/08 11:00:28;;;;;;;2.83;0.77;;;16.60;99.90;;;;;;5089545;28;20502;-84
2022/10/08 11:03:09;;;;;;;1.35;0.40;;;16.50;99.90;;;;;;5084492;28;20022;-83
2022/10/08 11:05:38;;;;;;;1.25;0.30;;;16.60;99.90;;;;;;5086469;28;20036;-84
2022/10/08 11:08:25;;;;;;;1.25;0.57;;;16.50;99.90;;;;;;5088405;28;20417;-83
2022/10/08 11:11:15;;;;;;;1.77;0.60;;;16.40;99.90;;;;;;5081882;28;20066;-83
2022/10/08 11:13:46;;;;;;;1.40;0.30;;;16.40;99.90;;;;;;5086296;28;20361;-83
2022/10/08 11:16:40;;;;;;;4.25;0.45;;;16.40;99.90;;;;;;5086604;28;20028;-83
2022/10/08 11:19:27;;;;;;;7.32;1.45;;;16.40;99.90;;;;;;5084514;28;20028;-83
2022/10/08 11:22:08;;;;;;;4.85;0.70;;;16.50;99.90;;;;;;5090102;28;20016;-83
2022/10/08 11:24:49;;;;;;;4.40;0.60;;;16.60;99.90;;;;;;5086787;28;20042;-83
2022/10/08 11:27:24;;;;;;;1.45;0.38;;;16.80;99.90;;;;;;5092048;28;20016;-83
2022/10/08 11:30:03;;;;;;;5.47;1.02;;;16.80;99.90;;;;;;5088590;28;20053;-84
2022/10/08 11:32:31;;;;;;;2.47;0.70;;;17.00;99.90;;;;;;5087529;28;20024;-83
2022/10/08 11:35:28;;;;;;;1.17;0.50;;;17.00;99.90;;;;;;5092915;28;20020;-82
2022/10/08 11:38:10;;;;;;;1.08;0.35;;;17.20;99.90;;;;;;5093946;28;20045;-83
2022/10/08 11:40:48;;;;;;;0.45;0.20;;;17.30;99.90;;;;;;5094923;28;20092;-83
2022/10/08 11:43:53;;;;;;;1.20;0.35;;;17.40;99.90;;;;;;5086173;28;20111;-83
2022/10/08 11:46:21;;;;;;;1.40;0.30;;;17.40;99.90;;;;;;5087403;28;20039;-83
2022/10/08 11:48:48;;;;;;;1.52;0.65;;;17.40;99.90;;;;;;5081655;28;20043;-83
2022/10/08 11:51:19;;;;;;;1.20;0.30;;;17.30;99.90;;;;;;5092752;28;20017;-83
2022/10/08 11:54:00;;;;;;;1.13;0.30;;;17.30;99.90;;;;;;5083934;28;20024;-83
2022/10/08 11:56:26;;;;;;;1.55;0.30;;;17.50;99.90;;;;;;5091622;28;20502;-84
2022/10/08 11:58:54;;;;;;;1.15;0.40;;;17.60;99.90;;;;;;5091201;28;20030;-84
2022/10/08 12:01:21;;;;;;;0.95;0.30;;;17.60;99.90;;;;;;5092105;28;20016;-84
2022/10/08 12:04:03;;;;;;;3.03;0.32;;;17.70;99.90;;;;;;5091388;28;20020;-84
2022/10/08 12:06:34;;;;;;;3.85;0.43;;;17.80;99.90;;;;;;5086178;28;20081;-84
2022/10/08 12:09:02;;;;;;;2.73;0.27;;;17.70;99.90;;;;;;5089359;28;20047;-84
2022/10/08 12:11:31;;;;;;;1.60;0.50;;;17.50;99.90;;;;;;5090961;28;20028;-84
2022/10/08 12:14:12;;;;;;;0.65;0.22;;;17.30;99.90;;;;;;5088428;28;20028;-84
2022/10/08 12:16:47;;;;;;;2.00;0.50;;;17.40;99.90;;;;;;5086779;28;20032;-84
2022/10/08 12:19:31;;;;;;;2.05;0.32;;;17.20;99.90;;;;;;5084111;28;20020;-85
2022/10/08 12:22:23;;;;;;;1.30;0.20;;;17.10;99.90;;;;;;5088025;28;20028;-84
2022/10/08 12:24:56;;;;;;;;;;;17.10;99.90;;;;;;5088119;28;20032;-83
2022/10/08 12:27:27;;;;;;;1.08;0.30;;;17.20;99.90;;;;;;5090822;28;19908;-83
2022/10/08 12:30:04;;;;;;;1.67;0.50;;;17.40;99.90;;;;;;5085911;28;20008;-82
2022/10/08 12:32:52;;;;;;;2.45;0.40;;;17.60;99.90;;;;;;5091329;28;20085;-82
2022/10/08 12:35:24;;;;;;;2.53;0.30;;;17.80;99.90;;;;;;5092484;28;20012;-83
2022/10/08 12:38:21;;;;;;;2.45;0.40;;;17.80;99.90;;;;;;5089046;28;20108;-83
2022/10/08 12:41:15;;;;;;;0.40;0.20;;;17.90;99.90;;;;;;5080325;28;20516;-82
2022/10/08 12:44:05;;;;;;;1.90;0.40;;;17.80;99.90;;;;;;5085593;28;20153;-83
2022/10/08 12:46:58;;;;;;;1.38;0.40;;;17.90;99.90;;;;;;5085037;28;20096;-83
2022/10/08 12:49:34;;;;;;;1.48;0.38;;;17.80;99.90;;;;;;5085512;28;20480;-83
2022/10/08 12:52:10;;;;;;;1.08;0.32;;;17.60;99.90;;;;;;5089444;28;20040;-83
2022/10/08 12:54:38;;;;;;;3.58;0.68;;;17.40;99.90;;;;;;5089130;28;20542;-82
2022/10/08 12:57:10;;;;;;;1.05;0.30;;;17.30;99.90;;;;;;5087297;28;20034;-83
2022/10/08 12:59:41;;;;;;;1.52;0.47;;;16.90;99.90;;;;;;5082357;28;20150;-82
2022/10/08 13:02:39;;;;;;;0.88;0.30;;;16.90;99.90;;;;;;5090117;28;20085;-83
2022/10/08 13:05:30;;;;;;;3.72;0.50;;;16.80;99.90;;;;;;5083133;28;20135;-83
2022/10/08 13:07:56;;;;;;;0.88;0.40;;;17.00;99.90;;;;;;5085682;28;20033;-83
2022/10/08 13:10:24;;;;;;;3.00;0.38;;;17.30;99.90;;;;;;5086628;28;20493;-83
2022/10/08 13:13:01;;;;;;;4.90;0.50;;;17.50;99.90;;;;;;5092907;28;20568;-83
2022/10/08 13:15:27;;;;;;;1.73;0.40;;;17.80;99.90;;;;;;5088392;28;20062;-83